createdAt,value
2019-02-25T00:02:02.247Z,3.80
2019-02-25T00:04:32.430Z,16.12
2019-02-25T00:07:03.830Z,9.40
2019-02-25T00:09:34.420Z,8.98
2019-02-25T00:12:04.869Z,5.25
2019-02-25T00:14:35.917Z,5.97
2019-02-25T00:17:06.720Z,4.15
2019-02-25T00:19:36.974Z,4.42
2019-02-25T00:22:07.423Z,4.90
2019-02-25T00:24:37.931Z,6.95
2019-02-25T00:27:08.332Z,5.70
2019-02-25T00:29:38.472Z,5.90
2019-02-25T00:32:08.902Z,4.90
2019-02-25T00:34:40.153Z,4.55
2019-02-25T00:37:10.493Z,5.30
2019-02-25T00:39:41.274Z,6.47
2019-02-25T00:42:11.751Z,4.65
2019-02-25T00:44:42.367Z,7.12
2019-02-25T00:47:13.096Z,3.33
2019-02-25T00:49:43.604Z,4.25
2019-02-25T00:52:14.173Z,4.08
2019-02-25T00:54:47.152Z,3.60
2019-02-25T00:57:17.834Z,5.80
2019-02-25T00:59:48.240Z,4.67
2019-02-25T01:02:18.627Z,4.90
2019-02-25T01:04:50.903Z,5.15
2019-02-25T01:07:21.607Z,3.70
2019-02-25T01:09:55.288Z,4.15
2019-02-25T01:12:25.864Z,6.17
2019-02-25T01:14:56.600Z,4.03
2019-02-25T01:17:27.158Z,3.83
2019-02-25T01:19:57.573Z,5.03
2019-02-25T01:22:29.031Z,3.80
2019-02-25T01:24:59.520Z,3.60
2019-02-25T01:27:30.271Z,5.33
2019-02-25T01:30:01.498Z,4.22
2019-02-25T01:32:31.714Z,4.30
2019-02-25T01:35:02.170Z,2.83
2019-02-25T01:37:32.681Z,4.53
2019-02-25T01:40:03.146Z,3.65
2019-02-25T01:42:33.478Z,5.25
2019-02-25T01:45:04.349Z,5.33
2019-02-25T01:47:34.785Z,4.05
2019-02-25T01:50:05.516Z,4.78
2019-02-25T01:52:35.914Z,2.67
2019-02-25T01:55:06.581Z,3.67
2019-02-25T01:57:37.177Z,3.40
2019-02-25T02:00:11.043Z,10.88
2019-02-25T02:02:42.283Z,3.02
2019-02-25T02:05:13.182Z,3.42
2019-02-25T02:07:43.983Z,5.30
2019-02-25T02:10:15.451Z,6.30
2019-02-25T02:12:56.110Z,5.50
2019-02-25T02:15:26.541Z,5.35
2019-02-25T02:17:56.816Z,3.75
2019-02-25T02:20:27.441Z,5.12
2019-02-25T02:22:57.954Z,5.00
2019-02-25T02:25:28.460Z,6.10
2019-02-25T02:28:00.080Z,4.17
2019-02-25T02:30:30.628Z,5.05
2019-02-25T02:33:01.996Z,4.72
2019-02-25T02:35:32.669Z,4.60
2019-02-25T02:38:04.740Z,6.05
2019-02-25T02:40:35.275Z,6.20
2019-02-25T02:43:06.065Z,4.90
2019-02-25T02:46:16.714Z,6.97
2019-02-25T02:48:56.924Z,6.70
2019-02-25T02:51:27.424Z,3.92
2019-02-25T02:53:57.833Z,4.80
2019-02-25T02:56:28.254Z,3.72
2019-02-25T02:58:58.724Z,4.80
2019-02-25T03:01:29.623Z,5.53
2019-02-25T03:04:00.272Z,9.93
2019-02-25T03:06:30.975Z,3.50
2019-02-25T03:09:01.313Z,3.95
2019-02-25T03:11:31.588Z,3.17
2019-02-25T03:14:02.255Z,3.12
2019-02-25T03:16:32.590Z,4.85
2019-02-25T03:19:03.191Z,3.60
2019-02-25T03:21:33.522Z,4.40
2019-02-25T03:24:04.067Z,9.18
2019-02-25T03:26:34.512Z,5.65
2019-02-25T03:29:05.813Z,3.70
2019-02-25T03:31:36.271Z,4.37
2019-02-25T03:34:06.556Z,5.75
2019-02-25T03:36:36.915Z,7.25
2019-02-25T03:39:08.540Z,4.60
2019-02-25T03:41:39.050Z,3.58
2019-02-25T03:44:09.433Z,5.30
2019-02-25T03:46:39.799Z,3.83
2019-02-25T03:49:10.166Z,3.35
2019-02-25T03:51:40.569Z,5.20
2019-02-25T03:54:10.938Z,3.65
2019-02-25T03:56:41.504Z,4.20
2019-02-25T03:59:12.928Z,4.35
2019-02-25T04:01:43.228Z,5.53
2019-02-25T04:04:14.181Z,3.45
2019-02-25T04:06:44.597Z,4.67
2019-02-25T04:09:15.120Z,4.03
2019-02-25T04:11:46.405Z,6.08
2019-02-25T04:14:16.799Z,4.50
2019-02-25T04:16:47.696Z,7.12
2019-02-25T04:19:18.277Z,11.60
2019-02-25T04:21:48.611Z,4.00
2019-02-25T04:24:19.055Z,3.27
2019-02-25T04:26:50.792Z,5.00
2019-02-25T04:29:22.608Z,8.73
2019-02-25T04:31:53.213Z,4.05
2019-02-25T04:34:24.531Z,10.32
2019-02-25T04:36:55.481Z,3.98
2019-02-25T04:39:26.015Z,3.58
2019-02-25T04:41:56.743Z,4.75
2019-02-25T04:44:27.243Z,6.28
2019-02-25T04:46:57.760Z,5.65
2019-02-25T04:49:28.453Z,8.30
2019-02-25T04:51:59.062Z,4.17
2019-02-25T04:54:29.400Z,4.30
2019-02-25T04:57:00.094Z,3.45
2019-02-25T04:59:30.605Z,5.33
2019-02-25T05:02:02.347Z,6.60
2019-02-25T05:04:32.968Z,4.95
2019-02-25T05:07:03.815Z,5.70
2019-02-25T05:09:34.266Z,9.20
2019-02-25T05:12:04.637Z,4.03
2019-02-25T05:14:35.111Z,6.60
2019-02-25T05:17:05.637Z,7.62
2019-02-25T05:19:36.416Z,4.95
2019-02-25T05:22:07.013Z,6.33
2019-02-25T05:24:37.701Z,7.90
2019-02-25T05:27:09.016Z,6.17
2019-02-25T05:29:39.522Z,6.33
2019-02-25T05:32:10.022Z,3.40
2019-02-25T05:34:40.957Z,6.58
2019-02-25T05:37:11.730Z,6.33
2019-02-25T05:39:42.237Z,5.28
2019-02-25T05:42:14.048Z,12.33
2019-02-25T05:44:44.396Z,4.78
2019-02-25T05:47:14.915Z,6.83
2019-02-25T05:49:48.449Z,10.38
2019-02-25T05:52:18.908Z,7.75
2019-02-25T05:54:49.371Z,4.05
2019-02-25T05:57:19.931Z,6.40
2019-02-25T05:59:50.759Z,7.83
2019-02-25T06:02:21.540Z,4.87
2019-02-25T06:04:52.003Z,6.87
2019-02-25T06:07:22.308Z,5.72
2019-02-25T06:09:52.720Z,6.92
2019-02-25T06:12:23.759Z,8.25
2019-02-25T06:14:54.370Z,9.28
2019-02-25T06:17:25.117Z,5.87
2019-02-25T06:19:55.603Z,5.72
2019-02-25T06:22:25.995Z,4.85
2019-02-25T06:25:15.187Z,7.53
2019-02-25T06:27:45.645Z,11.65
2019-02-25T06:30:18.179Z,7.67
2019-02-25T06:32:48.759Z,6.60
2019-02-25T06:35:19.381Z,7.37
2019-02-25T06:37:50.079Z,13.28
2019-02-25T06:40:21.148Z,8.18
2019-02-25T06:42:51.578Z,11.53
2019-02-25T06:45:22.057Z,8.38
2019-02-25T06:47:52.698Z,11.38
2019-02-25T06:50:23.645Z,5.85
2019-02-25T06:52:53.964Z,9.85
2019-02-25T06:55:27.250Z,8.48
2019-02-25T06:57:57.795Z,8.05
2019-02-25T07:00:28.387Z,6.15
2019-02-25T07:02:58.937Z,9.90
2019-02-25T07:05:37.086Z,8.70
2019-02-25T07:08:24.600Z,6.80
2019-02-25T07:11:23.850Z,7.47
2019-02-25T07:14:06.440Z,8.03
2019-02-25T07:16:54.446Z,7.60
2019-02-25T07:19:46.783Z,10.80
2019-02-25T07:22:38.822Z,9.75
2019-02-25T07:25:31.781Z,7.15
2019-02-25T07:28:24.117Z,8.75
2019-02-25T07:31:12.262Z,11.60
2019-02-25T07:34:01.139Z,17.87
2019-02-25T07:36:41.603Z,9.20
2019-02-25T07:39:29.934Z,12.30
2019-02-25T07:42:11.217Z,8.15
2019-02-25T07:45:00.588Z,8.43
2019-02-25T07:47:47.707Z,6.85
2019-02-25T07:50:25.306Z,8.23
2019-02-25T07:53:14.684Z,9.18
2019-02-25T07:56:02.781Z,12.23
2019-02-25T07:58:50.760Z,7.78
2019-02-25T08:01:51.399Z,6.03
2019-02-25T08:04:40.991Z,8.18
2019-02-25T08:07:36.487Z,5.40
2019-02-25T08:10:30.163Z,10.03
2019-02-25T08:13:25.399Z,6.28
2019-02-25T08:16:20.863Z,7.08
2019-02-25T08:19:08.989Z,8.23
2019-02-25T08:21:59.635Z,11.05
2019-02-25T08:24:41.837Z,8.90
2019-02-25T08:27:43.636Z,11.35
2019-02-25T08:30:41.747Z,7.60
2019-02-25T08:33:46.849Z,9.18
2019-02-25T08:37:30.157Z,7.55
2019-02-25T08:40:52.616Z,7.28
2019-02-25T08:43:51.201Z,9.68
2019-02-25T08:46:38.837Z,10.48
2019-02-25T08:49:19.823Z,12.13
2019-02-25T08:51:50.254Z,13.38
2019-02-25T08:54:20.857Z,10.05
2019-02-25T08:56:51.542Z,14.98
2019-02-25T08:59:22.289Z,11.83
2019-02-25T09:01:52.909Z,9.25
2019-02-25T09:04:23.353Z,10.45
2019-02-25T09:06:53.945Z,15.35
2019-02-25T09:09:24.568Z,11.53
2019-02-25T09:11:54.872Z,12.68
2019-02-25T09:14:25.709Z,9.90
2019-02-25T09:16:56.499Z,14.75
2019-02-25T09:19:27.507Z,10.45
2019-02-25T09:21:57.872Z,10.55
2019-02-25T09:24:28.132Z,11.15
2019-02-25T09:26:59.204Z,12.82
2019-02-25T09:29:29.921Z,7.45
2019-02-25T09:32:00.256Z,10.68
2019-02-25T09:34:31.496Z,8.03
2019-02-25T09:37:02.164Z,11.22
2019-02-25T09:39:32.821Z,11.95
2019-02-25T09:42:03.224Z,11.80
2019-02-25T09:44:33.963Z,12.45
2019-02-25T09:47:05.212Z,13.68
2019-02-25T09:49:35.736Z,19.05
2019-02-25T09:52:06.454Z,13.10
2019-02-25T09:54:38.272Z,12.65
2019-02-25T09:57:08.762Z,11.22
2019-02-25T09:59:39.243Z,13.78
2019-02-25T10:02:09.884Z,9.85
2019-02-25T10:04:44.625Z,6.25
2019-02-25T10:07:15.115Z,6.22
2019-02-25T10:09:46.461Z,5.30
2019-02-25T10:12:16.793Z,6.45
2019-02-25T10:14:49.609Z,5.30
2019-02-25T10:17:23.651Z,7.47
2019-02-25T10:19:52.190Z,9.03
2019-02-25T10:22:22.623Z,7.37
2019-02-25T10:24:54.498Z,5.50
2019-02-25T10:27:24.853Z,5.75
2019-02-25T10:29:55.446Z,13.83
2019-02-25T10:32:27.901Z,5.53
2019-02-25T10:34:58.090Z,9.58
2019-02-25T10:37:28.618Z,6.05
2019-02-25T10:39:59.138Z,5.15
2019-02-25T10:42:31.563Z,7.10
2019-02-25T10:45:03.052Z,8.18
2019-02-25T10:47:34.784Z,5.80
2019-02-25T10:50:07.288Z,6.58
2019-02-25T10:52:38.839Z,7.80
2019-02-25T10:55:34.119Z,8.38
2019-02-25T10:58:06.338Z,9.75
2019-02-25T11:00:39.054Z,6.53
2019-02-25T11:03:12.838Z,10.35
2019-02-25T11:05:46.900Z,7.70
2019-02-25T11:08:18.580Z,9.50
2019-02-25T11:11:03.724Z,8.25
2019-02-25T11:13:36.559Z,6.90
2019-02-25T11:16:06.710Z,6.20
2019-02-25T11:18:37.315Z,7.72
2019-02-25T11:21:08.977Z,10.40
2019-02-25T11:23:40.693Z,6.60
2019-02-25T11:26:11.387Z,5.40
2019-02-25T11:28:43.785Z,5.58
2019-02-25T11:31:17.428Z,8.10
2019-02-25T11:33:47.575Z,10.00
2019-02-25T11:36:20.154Z,10.77
2019-02-25T11:38:50.513Z,6.10
2019-02-25T11:41:21.091Z,7.17
2019-02-25T11:43:55.182Z,20.05
2019-02-25T11:46:27.320Z,21.80
2019-02-25T11:48:57.913Z,14.63
2019-02-25T11:51:28.201Z,7.87
2019-02-25T11:53:59.567Z,18.90
2019-02-25T11:56:31.195Z,5.10
2019-02-25T11:59:02.195Z,6.60
2019-02-25T12:01:32.635Z,6.40
2019-02-25T12:04:03.647Z,5.00
2019-02-25T12:06:34.113Z,5.92
2019-02-25T12:09:05.638Z,6.13
2019-02-25T12:11:36.161Z,12.57
2019-02-25T12:14:06.470Z,31.30
2019-02-25T12:16:37.264Z,8.87
2019-02-25T12:19:07.839Z,19.13
2019-02-25T12:21:38.525Z,7.50
2019-02-25T12:24:09.404Z,9.10
2019-02-25T12:26:39.720Z,7.33
2019-02-25T12:29:11.037Z,8.03
2019-02-25T12:31:41.896Z,7.07
2019-02-25T12:34:12.540Z,12.27
2019-02-25T12:36:43.888Z,8.97
2019-02-25T12:39:16.246Z,13.47
2019-02-25T12:41:47.094Z,14.70
2019-02-25T12:44:17.834Z,10.70
2019-02-25T12:46:53.368Z,7.77
2019-02-25T12:49:23.813Z,16.73
2019-02-25T12:51:54.307Z,8.00
2019-02-25T12:54:24.706Z,9.80
2019-02-25T12:56:55.723Z,9.27
2019-02-25T12:59:26.655Z,14.20
2019-02-25T13:01:58.337Z,8.80
2019-02-25T13:04:29.179Z,8.70
2019-02-25T13:06:59.693Z,9.70
2019-02-25T13:09:30.186Z,17.43
2019-02-25T13:12:00.721Z,14.33
2019-02-25T13:14:31.690Z,9.03
2019-02-25T13:17:02.559Z,11.70
2019-02-25T13:19:33.268Z,11.90
2019-02-25T13:22:03.820Z,17.03
2019-02-25T13:24:37.327Z,10.13
2019-02-25T13:27:09.131Z,12.73
2019-02-25T13:29:42.133Z,12.50
2019-02-25T13:32:12.681Z,12.67
2019-02-25T13:34:43.036Z,12.23
2019-02-25T13:37:14.744Z,13.87
2019-02-25T13:39:45.905Z,15.37
2019-02-25T13:42:18.014Z,15.57
2019-02-25T13:44:48.743Z,17.07
2019-02-25T13:47:19.293Z,14.20
2019-02-25T13:49:49.981Z,17.70
2019-02-25T13:52:22.142Z,10.60
2019-02-25T13:54:52.551Z,12.37
2019-02-25T13:57:23.189Z,15.17
2019-02-25T13:59:54.755Z,10.47
2019-02-25T14:02:25.299Z,10.10
2019-02-25T14:04:56.273Z,21.37
2019-02-25T14:07:28.034Z,11.63
2019-02-25T14:09:59.126Z,16.20
2019-02-25T14:12:29.646Z,11.73
2019-02-25T14:15:00.009Z,12.43
2019-02-25T14:17:30.666Z,12.83
2019-02-25T14:20:01.126Z,11.40
2019-02-25T14:22:31.571Z,11.57
2019-02-25T14:25:03.599Z,11.63
2019-02-25T14:27:35.079Z,10.27
2019-02-25T14:30:07.485Z,18.03
2019-02-25T14:32:38.886Z,21.73
2019-02-25T14:35:10.095Z,23.43
2019-02-25T14:37:40.746Z,11.20
2019-02-25T14:40:16.661Z,11.20
2019-02-25T14:42:49.456Z,10.27
2019-02-25T14:45:21.590Z,13.33
2019-02-25T14:47:55.302Z,12.50
2019-02-25T14:50:24.357Z,10.97
2019-02-25T14:52:55.223Z,13.62
2019-02-25T14:55:27.026Z,15.60
2019-02-25T14:58:02.155Z,11.87
2019-02-25T15:00:32.764Z,9.37
2019-02-25T15:03:02.355Z,9.07
2019-02-25T15:05:32.717Z,13.30
2019-02-25T15:08:03.630Z,15.58
2019-02-25T15:10:36.105Z,12.60
2019-02-25T15:13:08.369Z,12.47
2019-02-25T15:15:39.262Z,9.88
2019-02-25T15:18:10.913Z,15.75
2019-02-25T15:20:41.543Z,10.60
2019-02-25T15:23:16.504Z,12.25
2019-02-25T15:25:47.110Z,10.43
2019-02-25T15:28:18.320Z,13.72
2019-02-25T15:30:49.541Z,29.12
2019-02-25T15:33:20.423Z,13.03
2019-02-25T15:35:51.093Z,13.98
2019-02-25T15:38:21.475Z,9.80
2019-02-25T15:40:52.238Z,12.35
2019-02-25T15:43:23.714Z,15.50
2019-02-25T15:45:55.254Z,16.73
2019-02-25T15:48:27.263Z,14.28
2019-02-25T15:51:00.624Z,10.60
2019-02-25T15:53:30.500Z,25.20
2019-02-25T15:56:01.433Z,11.45
2019-02-25T15:58:33.234Z,12.82
2019-02-25T16:01:14.108Z,14.60
2019-02-25T16:03:44.639Z,12.55
2019-02-25T16:06:15.754Z,16.23
2019-02-25T16:08:49.890Z,14.33
2019-02-25T16:11:20.823Z,20.00
2019-02-25T16:13:53.547Z,14.80
2019-02-25T16:16:24.156Z,13.32
2019-02-25T16:18:55.013Z,16.65
2019-02-25T16:21:26.649Z,13.35
2019-02-25T16:23:59.336Z,14.83
2019-02-25T16:26:29.966Z,24.70
2019-02-25T16:29:06.615Z,19.92
2019-02-25T16:31:37.632Z,18.92
2019-02-25T16:34:16.445Z,20.48
2019-02-25T16:36:51.474Z,25.37
2019-02-25T16:39:22.662Z,19.52
2019-02-25T16:41:53.243Z,17.67
2019-02-25T16:44:24.241Z,14.60
2019-02-25T16:46:56.964Z,16.60
2019-02-25T16:49:29.158Z,20.97
2019-02-25T16:52:00.368Z,19.35
2019-02-25T16:54:32.229Z,18.60
2019-02-25T16:57:02.825Z,17.57
2019-02-25T16:59:33.292Z,19.17
2019-02-25T17:02:07.037Z,17.73
2019-02-25T17:04:38.789Z,22.17
2019-02-25T17:07:09.707Z,25.02
2019-02-25T17:09:42.912Z,22.30
2019-02-25T17:12:17.319Z,25.20
2019-02-25T17:14:48.108Z,28.12
2019-02-25T17:17:20.351Z,24.00
2019-02-25T17:19:51.509Z,23.32
2019-02-25T17:22:23.393Z,21.80
2019-02-25T17:24:56.472Z,20.72
2019-02-25T17:27:27.318Z,31.30
2019-02-25T17:29:59.718Z,34.20
2019-02-25T17:32:30.290Z,35.80
2019-02-25T17:35:05.218Z,28.55
2019-02-25T17:37:38.089Z,32.88
2019-02-25T17:40:11.323Z,31.62
2019-02-25T17:42:44.946Z,32.17
2019-02-25T17:45:17.624Z,27.15
2019-02-25T17:47:49.384Z,29.37
2019-02-25T17:50:20.962Z,25.17
2019-02-25T17:52:51.283Z,21.90
2019-02-25T17:55:22.522Z,22.90
2019-02-25T17:58:00.970Z,18.23
2019-02-25T18:00:38.808Z,22.45
2019-02-25T18:03:08.333Z,21.30
2019-02-25T18:05:42.916Z,17.52
2019-02-25T18:08:15.438Z,18.85
2019-02-25T18:10:47.483Z,20.88
2019-02-25T18:13:21.930Z,21.90
2019-02-25T18:15:53.670Z,20.32
2019-02-25T18:18:24.835Z,21.25
2019-02-25T18:20:55.415Z,16.82
2019-02-25T18:23:26.680Z,41.55
2019-02-25T18:25:58.684Z,19.52
2019-02-25T18:28:29.302Z,18.90
2019-02-25T18:31:01.671Z,19.15
2019-02-25T18:33:32.654Z,20.43
2019-02-25T18:36:04.468Z,17.77
2019-02-25T18:38:35.830Z,18.98
2019-02-25T18:41:09.186Z,19.15
2019-02-25T18:43:39.862Z,20.23
2019-02-25T18:46:10.862Z,20.10
2019-02-25T18:48:42.889Z,21.15
2019-02-25T18:51:13.610Z,19.60
2019-02-25T18:53:44.829Z,20.77
2019-02-25T18:56:16.745Z,20.15
2019-02-25T18:58:48.190Z,24.75
2019-02-25T19:01:18.745Z,22.17
2019-02-25T19:03:50.595Z,19.55
2019-02-25T19:06:23.557Z,23.90
2019-02-25T19:08:56.136Z,17.50
2019-02-25T19:11:28.263Z,19.12
2019-02-25T19:14:03.681Z,22.65
2019-02-25T19:16:36.019Z,21.50
2019-02-25T19:19:08.038Z,16.10
2019-02-25T19:21:39.153Z,19.65
2019-02-25T19:24:11.985Z,22.52
2019-02-25T19:26:44.573Z,23.22
2019-02-25T19:29:15.235Z,25.20
2019-02-25T19:31:47.893Z,26.30
2019-02-25T19:34:19.380Z,21.35
2019-02-25T19:36:49.974Z,22.22
2019-02-25T19:39:21.629Z,16.57
2019-02-25T19:41:53.811Z,18.95
2019-02-25T19:44:25.248Z,24.77
2019-02-25T19:46:57.191Z,18.23
2019-02-25T19:49:28.048Z,22.80
2019-02-25T19:51:58.791Z,20.48
2019-02-25T19:54:29.610Z,20.80
2019-02-25T19:57:00.049Z,18.20
2019-02-25T19:59:31.077Z,19.07
2019-02-25T20:02:01.353Z,27.30
2019-02-25T20:04:33.419Z,15.40
2019-02-25T20:07:03.873Z,15.68
2019-02-25T20:09:34.265Z,15.18
2019-02-25T20:12:04.601Z,13.90
2019-02-25T20:14:35.453Z,16.20
2019-02-25T20:17:06.958Z,14.90
2019-02-25T20:19:39.197Z,16.85
2019-02-25T20:22:12.115Z,13.30
2019-02-25T20:24:46.595Z,13.40
2019-02-25T20:27:18.099Z,9.80
2019-02-25T20:29:48.489Z,16.45
2019-02-25T20:32:20.647Z,11.43
2019-02-25T20:34:52.868Z,14.25
2019-02-25T20:37:27.273Z,15.68
2019-02-25T20:39:58.034Z,15.70
2019-02-25T20:42:29.062Z,12.98
2019-02-25T20:45:03.237Z,15.88
2019-02-25T20:47:34.598Z,12.15
2019-02-25T20:50:05.598Z,14.50
2019-02-25T20:52:36.628Z,10.15
2019-02-25T20:55:10.804Z,13.40
2019-02-25T20:57:41.249Z,18.00
2019-02-25T21:00:16.024Z,9.70
2019-02-25T21:02:47.427Z,13.08
2019-02-25T21:05:21.849Z,10.88
2019-02-25T21:07:52.801Z,11.68
2019-02-25T21:10:25.050Z,11.80
2019-02-25T21:12:57.101Z,13.80
2019-02-25T21:15:33.310Z,13.88
2019-02-25T21:18:06.880Z,13.20
2019-02-25T21:20:35.557Z,12.53
2019-02-25T21:23:08.382Z,15.45
2019-02-25T21:25:38.703Z,13.32
2019-02-25T21:28:31.416Z,12.70
2019-02-25T21:31:01.914Z,13.62
2019-02-25T21:33:32.709Z,12.73
2019-02-25T21:36:03.946Z,14.33
2019-02-25T21:38:34.731Z,9.13
2019-02-25T21:41:06.928Z,12.28
2019-02-25T21:43:37.382Z,18.48
2019-02-25T21:46:08.862Z,11.18
2019-02-25T21:48:39.686Z,13.78
2019-02-25T21:51:12.357Z,12.82
2019-02-25T21:53:42.585Z,13.18
2019-02-25T21:56:13.053Z,12.20
2019-02-25T21:58:53.025Z,10.88
2019-02-25T22:01:23.352Z,10.40
2019-02-25T22:03:54.615Z,12.73
2019-02-25T22:06:26.840Z,12.98
2019-02-25T22:08:58.646Z,9.03
2019-02-25T22:11:30.255Z,10.95
2019-02-25T22:14:02.023Z,11.00
2019-02-25T22:16:32.598Z,9.53
2019-02-25T22:19:03.368Z,10.18
2019-02-25T22:21:34.277Z,9.68
2019-02-25T22:24:07.155Z,15.45
2019-02-25T22:26:38.539Z,11.55
2019-02-25T22:29:10.177Z,12.43
2019-02-25T22:31:41.939Z,13.40
2019-02-25T22:34:15.949Z,11.45
2019-02-25T22:36:46.784Z,11.35
2019-02-25T22:39:18.559Z,9.85
2019-02-25T22:41:51.002Z,10.43
2019-02-25T22:44:22.629Z,13.30
2019-02-25T22:46:55.305Z,9.45
2019-02-25T22:49:26.673Z,10.10
2019-02-25T22:52:01.146Z,13.00
2019-02-25T22:54:52.275Z,7.42
2019-02-25T22:57:23.670Z,9.55
2019-02-25T22:59:56.853Z,7.45
2019-02-25T23:02:28.874Z,9.15
2019-02-25T23:04:59.411Z,8.33
2019-02-25T23:07:30.052Z,8.00
2019-02-25T23:10:01.338Z,7.22
2019-02-25T23:12:32.133Z,7.75
2019-02-25T23:15:05.892Z,9.23
2019-02-25T23:17:37.528Z,10.05
2019-02-25T23:20:09.508Z,9.30
2019-02-25T23:22:40.103Z,12.53
2019-02-25T23:25:10.806Z,7.58
2019-02-25T23:27:41.568Z,7.65
2019-02-25T23:30:12.326Z,8.70
2019-02-25T23:32:43.418Z,8.23
2019-02-25T23:35:16.427Z,9.20
2019-02-25T23:37:49.084Z,7.92
2019-02-25T23:40:19.062Z,6.28
2019-02-25T23:42:49.804Z,8.30
2019-02-25T23:45:23.061Z,5.78
2019-02-25T23:47:57.669Z,7.08
2019-02-25T23:50:27.382Z,7.45
2019-02-25T23:52:57.917Z,7.15
2019-02-25T23:55:29.672Z,5.72
2019-02-25T23:58:00.510Z,12.43
